Flight Track Log - Related Links

Times and Time Zones

All times are in EDT time to prevent confusion due to time zone crossing. See the N850ME flight status page for this flight to view local times or setup timezone preferences in your user account.

Time Position Orientation Groundspeed Altitude Reporting Facility
EDT Latitude Longitude Course Direction KTS MPH feet Rate Location/Type
Mon 11:50:38 AM 39.9333 -104.6833 11° North 209 241 6,800  Level Denver TRACON
Mon 11:51:38 AM 40.0000 -104.6667 11° North 240 276 9,400 2,450 Climbing Denver TRACON
Mon 11:52:38 AM 40.0667 -104.6500 11° North 267 307 11,700 2,350 Climbing Denver TRACON
Mon 11:53:38 AM 40.1333 -104.6333 11° North 283 326 14,100 2,350 Climbing Denver TRACON
Mon 11:54:38 AM 40.2167 -104.6333 360° North 325 374 16,400 2,374 Climbing Denver TRACON
Mon 11:55:09 AM 40.2681 -104.6481 348° North 318 366 17,700 2,387 Climbing Denver Center
Mon 11:56:11 AM 40.3636 -104.6608 354° North 325 374 20,100 2,226 Climbing Denver Center
Mon 11:57:13 AM 40.4517 -104.7033 340° North 338 389 22,300 2,032 Climbing Denver Center
Mon 11:58:15 AM 40.5489 -104.7511 340° North 341 392 24,300 1,839 Climbing Denver Center
Mon 11:59:17 AM 40.6392 -104.7961 339° North 348 400 26,100 1,645 Climbing Denver Center
Mon 12:00:19 PM 40.7269 -104.8411 339° North 326 375 27,700 919 Climbing Denver Center
Mon 12:01:21 PM 40.8047 -104.8761 341° North 300 345 28,000 145 Climbing Denver Center
Mon 12:02:23 PM 40.8850 -104.9139 340° North 306 352 28,000  Level Denver Center
Mon 12:03:25 PM 40.9669 -104.9567 338° Northwest 316 364 28,000  Level Denver Center
Mon 12:04:27 PM 41.0542 -105.0272 329° Northwest 338 389 28,000  Level Denver Center
Mon 12:05:29 PM 41.0650 -105.1681 276° West 352 405 28,000  Level Denver Center
Mon 12:06:31 PM 41.0242 -105.2814 245° Southwest 358 412 28,000  Level Denver Center
Mon 12:07:34 PM 40.9619 -105.3917 233° Southwest 370 426 28,000  Level Denver Center
Mon 12:08:36 PM 40.8992 -105.5011 233° Southwest 373 429 28,000  Level Denver Center
Mon 12:09:38 PM 40.8375 -105.6133 234° Southwest 378 435 28,000  Level Denver Center
Mon 12:10:40 PM 40.7633 -105.7461 234° Southwest 376 433 28,000  Level Denver Center
Mon 12:11:42 PM 40.7019 -105.8539 233° Southwest 370 426 28,000  Level Denver Center
Mon 12:12:44 PM 40.6414 -105.9614 233° Southwest 367 422 28,000  Level Denver Center
Mon 12:13:46 PM 40.5808 -106.0664 233° Southwest 363 418 28,000  Level Denver Center
Mon 12:14:48 PM 40.5208 -106.1722 233° Southwest 356 410 28,000  Level Denver Center
Mon 12:15:50 PM 40.4539 -106.2869 233° Southwest 354 407 28,000  Level Denver Center
Mon 12:16:52 PM 40.3986 -106.3847 233° Southwest 350 403 28,000  Level Denver Center
Mon 12:17:54 PM 40.3325 -106.4972 232° Southwest 348 400 28,000  Level Denver Center
Mon 12:18:56 PM 40.2714 -106.6053 233° Southwest 348 400 28,000  Level Denver Center
Mon 12:19:58 PM 40.2119 -106.7053 232° Southwest 344 396 28,000  Level Denver Center
Mon 12:21:00 PM 40.1572 -106.7986 233° Southwest 338 389 28,000  Level Denver Center
Mon 12:22:02 PM 40.0939 -106.9089 233° Southwest 339 390 28,000  Level Denver Center
Mon 12:23:04 PM 40.0392 -107.0019 232° Southwest 337 388 28,000  Level Denver Center
Mon 12:24:06 PM 39.9761 -107.1092 233° Southwest 335 386 28,000  Level Denver Center
Mon 12:25:08 PM 39.9178 -107.2103 233° Southwest 334 384 28,000  Level Denver Center
Mon 12:26:10 PM 39.8586 -107.3078 232° Southwest 333 383 28,000  Level Denver Center
Mon 12:27:12 PM 39.8050 -107.3986 232° Southwest 332 382 28,000  Level Denver Center
Mon 12:28:14 PM 39.7500 -107.4894 232° Southwest 333 383 28,000  Level Denver Center
Mon 12:29:16 PM 39.6867 -107.5975 233° Southwest 335 386 28,000  Level Denver Center
Mon 12:30:19 PM 39.6306 -107.6875 231° Southwest 333 383 28,000  Level Denver Center
Mon 12:31:21 PM 39.5669 -107.7947 232° Southwest 336 387 28,000  Level Denver Center
Mon 12:32:23 PM 39.5125 -107.8861 232° Southwest 334 384 28,000  Level Denver Center
Mon 12:33:25 PM 39.4469 -107.9925 231° Southwest 335 386 28,000 -145 Level Denver Center
Mon 12:34:27 PM 39.3928 -108.0850 233° Southwest 335 386 27,700 -484 Descending Denver Center
Mon 12:35:29 PM 39.3289 -108.1894 232° Southwest 330 380 27,000 -1,597 Descending Denver Center
Mon 12:36:31 PM 39.2797 -108.2814 235° Southwest 324 373 24,400 -2,855 Descending Denver Center
Mon 12:37:33 PM 39.2336 -108.3808 239° Southwest 321 369 21,100 -3,194 Descending Denver Center
Mon 12:38:35 PM 39.2258 -108.4875 265° West 289 333 17,800 -3,194 Descending Denver Center
Mon 12:39:37 PM 39.2750 -108.5642 310° West 278 320 14,500 -3,339 Descending Denver Center
Mon 12:40:39 PM 39.3017 -108.6581 290° West 274 315 10,900 -2,613 Descending Denver Center
Mon 12:41:41 PM 39.2550 -108.7147 223° Southwest 274 315 9,100 -1,645 Descending Denver Center
Mon 12:42:43 PM 39.2025 -108.6703 147° Southeast 215 247 7,500 -1,210 Descending Denver Center
Mon 12:43:45 PM 39.1772 -108.6225 124° Southeast 165 190 6,600 -968 Descending Denver Center
Mon 12:44:47 PM 39.1511 -108.5750 125° Southeast 153 176 5,500 -871 Descending Denver Center
Mon 12:45:49 PM 39.1322 -108.5392 124° Southeast 146 168 4,800 -677 Descending Denver Center
Mon 12:47:00 PM 39.1224 -108.5267 North  Level Estimated

Login

Don't have an account? Register now (free) for customized features, flight alerts, and more!